Quenames — WTU9038 — position and weather

sailwx.info

Track history (hours):
 
Tides and Currents Weather Stations Pressure Air Temp Water Temp Dewpoint Dewpoint Depression Visibility Wind Speed Wind Dir Waves Ship Positions

Quenames

Owner: BOSTON MARINE TRANSPORT INC, Pelham, NH. More information available from US FCC via Universal Licensing System and Coast Guard Vessel Documentation Center.

Last reported at 2018-Apr-19 14:29 UTC. Time now 2018-Apr-20 16:45 UTC.
Position N 40°52' W 073°44'.

Length 23 m; draft 3 m.

Type: Tug. MMSI: 367022790.

Date/timePositionNaut miles runAvg speedWind from/ knotsBaromVisibWave heightAir tempDewpointWater temp
2018-Apr-19 14:29N 40°52' W 073°44'3 4.4
2018-Apr-19 13:45N 40°50' W 073°46'2 4.9
2018-Apr-19 13:26N 40°48' W 073°47'2 4.9
2018-Apr-19 12:58N 40°48' W 073°50'3 5.9
2018-Apr-19 12:30N 40°48' W 073°54'4 8.0
2018-Apr-19 12:00N 40°45' W 073°58'3 6.4
2018-Apr-19 11:30N 40°42' W 073°59'3 6.1
2018-Apr-19 11:00N 40°40' W 074°02'2 4.8
2018-Apr-19 10:30N 40°39' W 074°05'3 5.5
2018-Apr-19 10:00N 40°39' W 074°08'2 4.9
2018-Apr-19 09:30N 40°38' W 074°12'2 4.9
2018-Apr-19 09:00N 40°36' W 074°12'3 4.9
2018-Apr-19 08:26N 40°33' W 074°13'1 2.1
2018-Apr-19 07:49N 40°33' W 074°15'0 1.0
2018-Apr-19 07:30N 40°33' W 074°15'3 5.5
2018-Apr-19 06:53N 40°35' W 074°12'4 9.5
2018-Apr-19 06:30N 40°39' W 074°10'3 5.8
2018-Apr-19 05:59N 40°39' W 074°07'0 0.0
2018-Apr-19 05:30N 40°39' W 074°07'0 0.0
2018-Apr-19 05:00N 40°39' W 074°07'0 0.0
2018-Apr-19 04:26N 40°39' W 074°07'0 1.1
2018-Apr-19 04:01N 40°39' W 074°07'0 0.1
2018-Apr-19 03:28N 40°39' W 074°07'0 0.0
2018-Apr-19 03:00N 40°39' W 074°07'0 0.0
2018-Apr-19 02:30N 40°39' W 074°07'0 0.0
2018-Apr-19 02:00N 40°39' W 074°07'0 0.0
2018-Apr-19 01:30N 40°39' W 074°07'0 0.0
2018-Apr-19 01:00N 40°39' W 074°07'0 0.0
2018-Apr-19 00:30N 40°39' W 074°07'1 2.4
2018-Apr-19 00:00N 40°39' W 074°09'4 7.5
2018-Apr-18 23:30N 40°36' W 074°12'4 3.7
2018-Apr-18 22:27N 40°33' W 074°15'4 6.7
2018-Apr-18 21:53N 40°36' W 074°12'3 7.9
2018-Apr-18 21:30N 40°39' W 074°11'3 6.1
2018-Apr-18 21:00N 40°39' W 074°07'3 6.2
2018-Apr-18 20:30N 40°39' W 074°03'5 9.7
2018-Apr-18 20:00N 40°43' W 073°59'611.1
2018-Apr-18 19:30N 40°47' W 073°55'4 8.9
2018-Apr-18 19:00N 40°48' W 073°49'5 0.2
2018-Apr-17 16:16N 40°52' W 073°45'2 6.6
2018-Apr-17 15:58N 40°50' W 073°46'3 5.2
2018-Apr-17 15:28N 40°48' W 073°49'4 7.3
2018-Apr-17 14:59N 40°48' W 073°54'4 8.6
2018-Apr-17 14:30N 40°45' W 073°58'4 7.8
2018-Apr-17 14:00N 40°42' W 074°00'4 7.6
2018-Apr-17 13:30N 40°39' W 074°04'3 6.2
2018-Apr-17 12:59N 40°39' W 074°08'3 6.2
2018-Apr-17 12:30N 40°38' W 074°12'3 6.6
2018-Apr-17 11:59N 40°35' W 074°13'3 5.1
2018-Apr-17 11:27N 40°33' W 074°15'0 0.4
2018-Apr-17 11:00N 40°33' W 074°15'0 0.0
2018-Apr-17 10:30N 40°33' W 074°15'0 0.1
2018-Apr-17 09:55N 40°33' W 074°15'0 0.0
2018-Apr-17 09:28N 40°33' W 074°15'0 0.0
2018-Apr-17 09:00N 40°33' W 074°15'0 0.0
2018-Apr-17 08:30N 40°33' W 074°15'0 0.0
2018-Apr-17 08:00N 40°33' W 074°15'0 0.0
2018-Apr-17 07:30N 40°33' W 074°15'0 0.0
2018-Apr-17 06:56N 40°33' W 074°15'0 0.0
2018-Apr-17 06:30N 40°33' W 074°15'0 0.0
2018-Apr-17 05:58N 40°33' W 074°15'0 0.0
2018-Apr-17 05:30N 40°33' W 074°15'0 0.0
2018-Apr-17 05:00N 40°33' W 074°15'1 2.0
2018-Apr-17 04:29N 40°32' W 074°15'1 0.6
2018-Apr-17 02:55N 40°33' W 074°15'2 2.5
2018-Apr-17 02:15N 40°34' W 074°13'2 8.2
2018-Apr-17 02:00N 40°36' W 074°12'3 6.8
2018-Apr-17 01:30N 40°39' W 074°11'4 7.5
2018-Apr-17 00:59N 40°39' W 074°05'3 6.5
2018-Apr-17 00:30N 40°41' W 074°02'4 7.2
2018-Apr-17 00:00N 40°45' W 074°01'4 7.4
2018-Apr-16 23:30N 40°48' W 073°59'4 7.7
2018-Apr-16 23:00N 40°51' W 073°57'7 0.2
2018-Apr-15 07:41N 40°58' W 073°54'1 4.4
2018-Apr-15 07:29N 40°57' W 073°54'2 4.5
2018-Apr-15 07:00N 40°55' W 073°55'2 4.5
2018-Apr-15 06:30N 40°53' W 073°56'2 4.6
2018-Apr-15 05:59N 40°51' W 073°57'2 4.7
2018-Apr-15 05:30N 40°49' W 073°58'3 5.2
2018-Apr-15 05:00N 40°46' W 074°00'3 5.7
2018-Apr-15 04:29N 40°44' W 074°01'3 5.9
2018-Apr-15 04:00N 40°41' W 074°02'3 5.7
2018-Apr-15 03:30N 40°39' W 074°05'4 7.5
2018-Apr-15 03:00N 40°39' W 074°10'2 4.0
2018-Apr-15 02:30N 40°38' W 074°12'0 0.1
2018-Apr-15 02:00N 40°38' W 074°12'0 0.0
2018-Apr-15 01:30N 40°38' W 074°12'0 0.0
2018-Apr-15 01:00N 40°38' W 074°12'0 0.0
2018-Apr-15 00:30N 40°38' W 074°12'0 0.0
2018-Apr-15 00:00N 40°38' W 074°12'0 0.0
2018-Apr-14 23:30N 40°38' W 074°12'0 0.0
2018-Apr-14 23:00N 40°38' W 074°12'0 0.0
2018-Apr-14 22:29N 40°38' W 074°12'0 0.0
2018-Apr-14 22:00N 40°38' W 074°12'0 0.0
2018-Apr-14 21:29N 40°38' W 074°12'0 0.0
2018-Apr-14 20:58N 40°38' W 074°12'0 0.0
2018-Apr-14 20:30N 40°38' W 074°12'0 0.0
2018-Apr-14 20:00N 40°38' W 074°12'0 0.0
2018-Apr-14 19:28N 40°38' W 074°12'0 0.0
2018-Apr-14 18:56N 40°38' W 074°12'0 0.0
2018-Apr-14 18:30N 40°38' W 074°12'0 0.0
2018-Apr-14 18:00N 40°38' W 074°12'0 0.0
2018-Apr-14 17:27N 40°38' W 074°12'0 0.0
2018-Apr-14 16:00N 40°38' W 074°12'0 0.0
2018-Apr-14 15:30N 40°38' W 074°12'0 0.0
2018-Apr-14 14:40N 40°38' W 074°12'0 0.0
2018-Apr-14 14:25N 40°38' W 074°12'2 4.5
2018-Apr-14 13:59N 40°36' W 074°12'4 7.0
2018-Apr-14 13:28N 40°33' W 074°15'0 0.8
2018-Apr-14 13:00N 40°33' W 074°15'0 0.0
2018-Apr-14 12:27N 40°33' W 074°15'0 0.0
2018-Apr-14 11:53N 40°33' W 074°15'0 0.0
2018-Apr-14 11:30N 40°33' W 074°15'0 0.0
2018-Apr-14 11:00N 40°33' W 074°15'0 0.0
2018-Apr-14 10:30N 40°33' W 074°15'0 0.0
2018-Apr-14 09:59N 40°33' W 074°15'0 0.0
2018-Apr-14 09:30N 40°33' W 074°15'0 0.0
2018-Apr-14 08:59N 40°33' W 074°15'0 0.0
2018-Apr-14 08:30N 40°33' W 074°15'0 0.5
2018-Apr-14 07:42N 40°33' W 074°15'4 6.7
2018-Apr-14 07:10N 40°36' W 074°12'1 8.3
2018-Apr-14 07:00N 40°37' W 074°12'4 7.1
2018-Apr-14 06:30N 40°39' W 074°08'1 2.4
2018-Apr-14 06:00N 40°39' W 074°07'0 0.0
2018-Apr-14 05:30N 40°39' W 074°07'0 0.0
2018-Apr-14 04:56N 40°39' W 074°07'0 0.0
2018-Apr-14 04:24N 40°39' W 074°07'0 0.0
2018-Apr-14 03:59N 40°39' W 074°07'0 0.0
2018-Apr-14 03:18N 40°39' W 074°07'1 5.1
2018-Apr-14 03:00N 40°39' W 074°08'3 6.4
2018-Apr-14 02:30N 40°37' W 074°12'4 7.3
2018-Apr-14 02:00N 40°34' W 074°13'2 0.3
2018-Apr-13 19:53N 40°32' W 074°15'3 7.8
2018-Apr-13 19:30N 40°34' W 074°13'4 8.2
2018-Apr-13 18:59N 40°38' W 074°12'3 6.4
2018-Apr-13 18:30N 40°39' W 074°07'1 1.6
2018-Apr-13 18:00N 40°39' W 074°06'1 2.3
2018-Apr-13 17:30N 40°39' W 074°05'2 4.6
2018-Apr-13 17:00N 40°40' W 074°02'0 0.2
2018-Apr-13 16:30N 40°40' W 074°02'0 0.1
2018-Apr-13 16:00N 40°40' W 074°02'0 0.0
2018-Apr-13 15:30N 40°40' W 074°02'0 0.0
2018-Apr-13 15:00N 40°40' W 074°02'0 0.0
2018-Apr-13 14:30N 40°40' W 074°02'0 0.1
2018-Apr-13 14:00N 40°40' W 074°02'3 6.6
2018-Apr-13 13:31N 40°39' W 074°06'4 7.2
2018-Apr-13 13:00N 40°39' W 074°11'1 2.6
2018-Apr-13 12:30N 40°38' W 074°12'0 0.0
2018-Apr-13 12:00N 40°38' W 074°12'0 0.0
2018-Apr-13 11:28N 40°38' W 074°12'0 0.0
2018-Apr-13 11:00N 40°38' W 074°12'0 0.0
2018-Apr-13 10:30N 40°38' W 074°12'0 0.0
2018-Apr-13 10:00N 40°38' W 074°12'0 0.0
2018-Apr-13 09:28N 40°38' W 074°12'0 0.0
2018-Apr-13 09:00N 40°38' W 074°12'0 0.0
2018-Apr-13 08:30N 40°38' W 074°12'0 0.0
2018-Apr-13 07:57N 40°38' W 074°12'0 0.0
2018-Apr-13 07:30N 40°38' W 074°12'0 0.0
2018-Apr-13 07:00N 40°38' W 074°12'0 0.0
2018-Apr-13 06:30N 40°38' W 074°12'0 0.0
2018-Apr-13 06:00N 40°38' W 074°12'0 0.0
2018-Apr-13 05:30N 40°38' W 074°12'0 0.0
2018-Apr-13 05:00N 40°38' W 074°12'0 0.0
2018-Apr-13 04:29N 40°38' W 074°12'0 0.0
2018-Apr-13 04:00N 40°38' W 074°12'0 0.0
2018-Apr-13 03:30N 40°38' W 074°12'0 0.0
2018-Apr-13 03:00N 40°38' W 074°12'0 0.0
2018-Apr-13 02:30N 40°38' W 074°12'0 0.0
2018-Apr-13 02:00N 40°38' W 074°12'0 0.0
2018-Apr-13 01:30N 40°38' W 074°12'0 0.8
2018-Apr-13 01:00N 40°38' W 074°12'3 5.3
2018-Apr-13 00:30N 40°39' W 074°09'4 7.2
2018-Apr-13 00:00N 40°40' W 074°04'2 3.7
2018-Apr-12 23:30N 40°40' W 074°02'0 0.0
2018-Apr-12 23:00N 40°40' W 074°02'0 0.0
2018-Apr-12 22:30N 40°40' W 074°02'0 0.1
2018-Apr-12 22:00N 40°40' W 074°02'0 0.1
2018-Apr-12 21:30N 40°40' W 074°02'0 0.1
2018-Apr-12 21:00N 40°40' W 074°02'0 0.1
2018-Apr-12 20:30N 40°40' W 074°02'0 0.1
2018-Apr-12 20:00N 40°40' W 074°02'1 1.2
2018-Apr-12 19:30N 40°41' W 074°02'3 6.6
2018-Apr-12 19:01N 40°43' W 073°58'4 7.7
2018-Apr-12 18:29N 40°47' W 073°56'4 7.9
2018-Apr-12 18:00N 40°48' W 073°52'4 7.1
2018-Apr-12 17:28N 40°49' W 073°47'4 0.2
2018-Apr-11 19:57N 40°53' W 073°44'4 7.6
2018-Apr-11 19:28N 40°50' W 073°47'3 5.8
2018-Apr-11 19:00N 40°48' W 073°50'4 7.2
2018-Apr-11 18:30N 40°48' W 073°55'4 7.2
2018-Apr-11 18:00N 40°45' W 073°58'3 5.9
2018-Apr-11 17:31N 40°42' W 073°59'3 5.6
2018-Apr-11 17:01N 40°40' W 074°02'3 5.7
2018-Apr-11 16:30N 40°39' W 074°05'2 3.1
2018-Apr-11 16:00N 40°39' W 074°07'0 0.0
2018-Apr-11 15:28N 40°39' W 074°07'0 0.0
2018-Apr-11 15:00N 40°39' W 074°07'0 0.0
2018-Apr-11 14:30N 40°39' W 074°07'0 0.0
2018-Apr-11 14:00N 40°39' W 074°07'0 0.0
2018-Apr-11 13:30N 40°39' W 074°07'0 0.0
2018-Apr-11 13:00N 40°39' W 074°07'0 0.0
2018-Apr-11 12:29N 40°39' W 074°07'0 0.0
2018-Apr-11 12:00N 40°39' W 074°07'0 0.0
2018-Apr-11 11:30N 40°39' W 074°07'0 0.0
2018-Apr-11 11:00N 40°39' W 074°07'0 0.0
2018-Apr-11 10:30N 40°39' W 074°07'0 0.0
2018-Apr-11 10:00N 40°39' W 074°07'0 0.0
2018-Apr-11 09:30N 40°39' W 074°07'0 0.0
2018-Apr-11 09:00N 40°39' W 074°07'0 0.0
2018-Apr-11 08:30N 40°39' W 074°07'0 0.0
2018-Apr-11 08:00N 40°39' W 074°07'0 0.0
2018-Apr-11 07:30N 40°39' W 074°07'0 0.0
2018-Apr-11 07:00N 40°39' W 074°07'0 0.0
2018-Apr-11 06:28N 40°39' W 074°07'0 0.0
2018-Apr-11 06:00N 40°39' W 074°07'0 0.0
2018-Apr-11 05:13N 40°39' W 074°07'0 0.0
2018-Apr-11 05:00N 40°39' W 074°07'0 0.0
2018-Apr-11 04:29N 40°39' W 074°07'0 0.0
2018-Apr-11 04:00N 40°39' W 074°07'0 0.0
2018-Apr-11 03:30N 40°39' W 074°07'0 0.0
2018-Apr-11 03:00N 40°39' W 074°07'0 0.0
2018-Apr-11 02:30N 40°39' W 074°07'0 0.0
2018-Apr-11 02:00N 40°39' W 074°07'0 0.0
2018-Apr-11 01:30N 40°39' W 074°07'0 0.0
2018-Apr-11 01:00N 40°39' W 074°07'0 0.0
2018-Apr-11 00:30N 40°39' W 074°07'0 0.0
2018-Apr-11 00:00N 40°39' W 074°07'0 0.0
2018-Apr-10 23:30N 40°39' W 074°07'0 0.0
2018-Apr-10 23:00N 40°39' W 074°07'0 0.0
2018-Apr-10 22:30N 40°39' W 074°07'0 0.0
2018-Apr-10 22:01N 40°39' W 074°07'0 0.0
2018-Apr-10 21:30N 40°39' W 074°07'0 0.0
2018-Apr-10 21:01N 40°39' W 074°07'0 0.0
2018-Apr-10 20:31N 40°39' W 074°07'0 0.0
2018-Apr-10 20:00N 40°39' W 074°07'0 0.0
2018-Apr-10 19:30N 40°39' W 074°07'0 0.0
2018-Apr-10 19:00N 40°39' W 074°07'0 0.0
2018-Apr-10 18:30N 40°39' W 074°07'0 0.0
2018-Apr-10 17:59N 40°39' W 074°07'0 0.0
2018-Apr-10 17:30N 40°39' W 074°07'0 0.0
2018-Apr-10 17:01N 40°39' W 074°07'0 0.0
2018-Apr-10 16:30N 40°39' W 074°07'0 0.0
2018-Apr-10 15:59N 40°39' W 074°07'0 0.0
2018-Apr-10 15:28N 40°39' W 074°07'0 0.0
2018-Apr-10 15:00N 40°39' W 074°07'0 0.0
2018-Apr-10 14:30N 40°39' W 074°07'0 0.0
2018-Apr-10 14:00N 40°39' W 074°07'0 0.0
2018-Apr-10 13:30N 40°39' W 074°07'0 0.0
2018-Apr-10 13:00N 40°39' W 074°07'0 0.0
2018-Apr-10 12:31N 40°39' W 074°07'0 0.0
2018-Apr-10 11:58N 40°39' W 074°07'0 0.0
2018-Apr-10 11:31N 40°39' W 074°07'0 0.0
2018-Apr-10 11:00N 40°39' W 074°07'0 0.0
2018-Apr-10 10:29N 40°39' W 074°07'0 0.0
2018-Apr-10 09:57N 40°39' W 074°07'0 0.0
2018-Apr-10 09:30N 40°39' W 074°07'0 0.0
2018-Apr-10 09:00N 40°39' W 074°07'0 0.2
2018-Apr-10 08:29N 40°39' W 074°07'2 3.1
2018-Apr-10 08:01N 40°39' W 074°09'0 0.3
2018-Apr-10 07:30N 40°39' W 074°09'0 0.2
2018-Apr-10 07:00N 40°39' W 074°09'0 0.2
2018-Apr-10 06:31N 40°39' W 074°09'1 1.6
2018-Apr-10 06:00N 40°39' W 074°10'2 4.1
2018-Apr-10 05:27N 40°38' W 074°12'0 0.2
2018-Apr-10 04:58N 40°38' W 074°12'0 0.0
2018-Apr-10 04:30N 40°38' W 074°12'0 0.0
2018-Apr-10 04:00N 40°38' W 074°12'0 0.0
2018-Apr-10 03:28N 40°38' W 074°12'0 0.0
2018-Apr-10 03:00N 40°38' W 074°12'0 0.0
2018-Apr-10 02:30N 40°38' W 074°12'0 0.0
2018-Apr-10 02:00N 40°38' W 074°12'0 0.0
2018-Apr-10 01:30N 40°38' W 074°12'0 0.3
2018-Apr-10 00:59N 40°38' W 074°12'0 0.0
2018-Apr-10 00:24N 40°38' W 074°12'0 0.0
2018-Apr-10 00:00N 40°38' W 074°12'0 0.0
2018-Apr-09 23:29N 40°38' W 074°12'0 0.0
2018-Apr-09 22:59N 40°38' W 074°12'0 0.0
2018-Apr-09 22:24N 40°38' W 074°12'0 0.0
2018-Apr-09 21:59N 40°38' W 074°12'0 0.0
2018-Apr-09 21:31N 40°38' W 074°12'0 0.0
2018-Apr-09 20:59N 40°38' W 074°12'0 0.0
2018-Apr-09 20:30N 40°38' W 074°12'0 0.0
2018-Apr-09 20:01N 40°38' W 074°12'0 0.0
2018-Apr-09 19:29N 40°38' W 074°12'3 5.1
2018-Apr-09 18:57N 40°35' W 074°12'1 1.3
2018-Apr-09 18:03N 40°34' W 074°13'1 9.4
2018-Apr-09 17:56N 40°35' W 074°13'3 5.8
2018-Apr-09 17:28N 40°38' W 074°12'0 0.3
2018-Apr-09 17:00N 40°38' W 074°12'3 5.4
2018-Apr-09 16:30N 40°39' W 074°09'3 5.8
2018-Apr-09 16:00N 40°39' W 074°05'0 0.0
2018-Apr-09 15:30N 40°39' W 074°05'0 0.0
2018-Apr-09 15:00N 40°39' W 074°05'0 0.0
2018-Apr-09 14:31N 40°39' W 074°05'  
Track history (hours):
 
Tides and Currents Weather Stations Pressure Air Temp Water Temp Dewpoint Dewpoint Depression Visibility Wind Speed Wind Dir Waves Ship Positions

Quenames

Owner: BOSTON MARINE TRANSPORT INC, Pelham, NH. More information available from US FCC via Universal Licensing System and Coast Guard Vessel Documentation Center.

Last reported at 2018-Apr-19 14:29 UTC. Time now 2018-Apr-20 16:45 UTC.
Position N 40°52' W 073°44'.

Length 23 m; draft 3 m.

Type: Tug. MMSI: 367022790.

Date/timePositionNaut miles runAvg speedWind from/ knotsBaromVisibWave heightAir tempDewpointWater temp
2018-Apr-19 14:29N 40°52' W 073°44'3 4.4
2018-Apr-19 13:45N 40°50' W 073°46'2 4.9
2018-Apr-19 13:26N 40°48' W 073°47'2 4.9
2018-Apr-19 12:58N 40°48' W 073°50'3 5.9
2018-Apr-19 12:30N 40°48' W 073°54'4 8.0
2018-Apr-19 12:00N 40°45' W 073°58'3 6.4
2018-Apr-19 11:30N 40°42' W 073°59'3 6.1
2018-Apr-19 11:00N 40°40' W 074°02'2 4.8
2018-Apr-19 10:30N 40°39' W 074°05'3 5.5
2018-Apr-19 10:00N 40°39' W 074°08'2 4.9
2018-Apr-19 09:30N 40°38' W 074°12'2 4.9
2018-Apr-19 09:00N 40°36' W 074°12'3 4.9
2018-Apr-19 08:26N 40°33' W 074°13'1 2.1
2018-Apr-19 07:49N 40°33' W 074°15'0 1.0
2018-Apr-19 07:30N 40°33' W 074°15'3 5.5
2018-Apr-19 06:53N 40°35' W 074°12'4 9.5
2018-Apr-19 06:30N 40°39' W 074°10'3 5.8
2018-Apr-19 05:59N 40°39' W 074°07'0 0.0
2018-Apr-19 05:30N 40°39' W 074°07'0 0.0
2018-Apr-19 05:00N 40°39' W 074°07'0 0.0
2018-Apr-19 04:26N 40°39' W 074°07'0 1.1
2018-Apr-19 04:01N 40°39' W 074°07'0 0.1
2018-Apr-19 03:28N 40°39' W 074°07'0 0.0
2018-Apr-19 03:00N 40°39' W 074°07'0 0.0
2018-Apr-19 02:30N 40°39' W 074°07'0 0.0
2018-Apr-19 02:00N 40°39' W 074°07'0 0.0
2018-Apr-19 01:30N 40°39' W 074°07'0 0.0
2018-Apr-19 01:00N 40°39' W 074°07'0 0.0
2018-Apr-19 00:30N 40°39' W 074°07'1 2.4
2018-Apr-19 00:00N 40°39' W 074°09'4 7.5
2018-Apr-18 23:30N 40°36' W 074°12'4 3.7
2018-Apr-18 22:27N 40°33' W 074°15'4 6.7
2018-Apr-18 21:53N 40°36' W 074°12'3 7.9
2018-Apr-18 21:30N 40°39' W 074°11'3 6.1
2018-Apr-18 21:00N 40°39' W 074°07'3 6.2
2018-Apr-18 20:30N 40°39' W 074°03'5 9.7
2018-Apr-18 20:00N 40°43' W 073°59'611.1
2018-Apr-18 19:30N 40°47' W 073°55'4 8.9
2018-Apr-18 19:00N 40°48' W 073°49'5 0.2
2018-Apr-17 16:16N 40°52' W 073°45'2 6.6
2018-Apr-17 15:58N 40°50' W 073°46'3 5.2
2018-Apr-17 15:28N 40°48' W 073°49'4 7.3
2018-Apr-17 14:59N 40°48' W 073°54'4 8.6
2018-Apr-17 14:30N 40°45' W 073°58'4 7.8
2018-Apr-17 14:00N 40°42' W 074°00'4 7.6
2018-Apr-17 13:30N 40°39' W 074°04'3 6.2
2018-Apr-17 12:59N 40°39' W 074°08'3 6.2
2018-Apr-17 12:30N 40°38' W 074°12'3 6.6
2018-Apr-17 11:59N 40°35' W 074°13'3 5.1
2018-Apr-17 11:27N 40°33' W 074°15'0 0.4
2018-Apr-17 11:00N 40°33' W 074°15'0 0.0
2018-Apr-17 10:30N 40°33' W 074°15'0 0.1
2018-Apr-17 09:55N 40°33' W 074°15'0 0.0
2018-Apr-17 09:28N 40°33' W 074°15'0 0.0
2018-Apr-17 09:00N 40°33' W 074°15'0 0.0
2018-Apr-17 08:30N 40°33' W 074°15'0 0.0
2018-Apr-17 08:00N 40°33' W 074°15'0 0.0
2018-Apr-17 07:30N 40°33' W 074°15'0 0.0
2018-Apr-17 06:56N 40°33' W 074°15'0 0.0
2018-Apr-17 06:30N 40°33' W 074°15'0 0.0
2018-Apr-17 05:58N 40°33' W 074°15'0 0.0
2018-Apr-17 05:30N 40°33' W 074°15'0 0.0
2018-Apr-17 05:00N 40°33' W 074°15'1 2.0
2018-Apr-17 04:29N 40°32' W 074°15'1 0.6
2018-Apr-17 02:55N 40°33' W 074°15'2 2.5
2018-Apr-17 02:15N 40°34' W 074°13'2 8.2
2018-Apr-17 02:00N 40°36' W 074°12'3 6.8
2018-Apr-17 01:30N 40°39' W 074°11'4 7.5
2018-Apr-17 00:59N 40°39' W 074°05'3 6.5
2018-Apr-17 00:30N 40°41' W 074°02'4 7.2
2018-Apr-17 00:00N 40°45' W 074°01'4 7.4
2018-Apr-16 23:30N 40°48' W 073°59'4 7.7
2018-Apr-16 23:00N 40°51' W 073°57'7 0.2
2018-Apr-15 07:41N 40°58' W 073°54'1 4.4
2018-Apr-15 07:29N 40°57' W 073°54'2 4.5
2018-Apr-15 07:00N 40°55' W 073°55'2 4.5
2018-Apr-15 06:30N 40°53' W 073°56'2 4.6
2018-Apr-15 05:59N 40°51' W 073°57'2 4.7
2018-Apr-15 05:30N 40°49' W 073°58'3 5.2
2018-Apr-15 05:00N 40°46' W 074°00'3 5.7
2018-Apr-15 04:29N 40°44' W 074°01'3 5.9
2018-Apr-15 04:00N 40°41' W 074°02'3 5.7
2018-Apr-15 03:30N 40°39' W 074°05'4 7.5
2018-Apr-15 03:00N 40°39' W 074°10'2 4.0
2018-Apr-15 02:30N 40°38' W 074°12'0 0.1
2018-Apr-15 02:00N 40°38' W 074°12'0 0.0
2018-Apr-15 01:30N 40°38' W 074°12'0 0.0
2018-Apr-15 01:00N 40°38' W 074°12'0 0.0
2018-Apr-15 00:30N 40°38' W 074°12'0 0.0
2018-Apr-15 00:00N 40°38' W 074°12'0 0.0
2018-Apr-14 23:30N 40°38' W 074°12'0 0.0
2018-Apr-14 23:00N 40°38' W 074°12'0 0.0
2018-Apr-14 22:29N 40°38' W 074°12'0 0.0
2018-Apr-14 22:00N 40°38' W 074°12'0 0.0
2018-Apr-14 21:29N 40°38' W 074°12'0 0.0
2018-Apr-14 20:58N 40°38' W 074°12'0 0.0
2018-Apr-14 20:30N 40°38' W 074°12'0 0.0
2018-Apr-14 20:00N 40°38' W 074°12'0 0.0
2018-Apr-14 19:28N 40°38' W 074°12'0 0.0
2018-Apr-14 18:56N 40°38' W 074°12'0 0.0
2018-Apr-14 18:30N 40°38' W 074°12'0 0.0
2018-Apr-14 18:00N 40°38' W 074°12'0 0.0
2018-Apr-14 17:27N 40°38' W 074°12'0 0.0
2018-Apr-14 16:00N 40°38' W 074°12'0 0.0
2018-Apr-14 15:30N 40°38' W 074°12'0 0.0
2018-Apr-14 14:40N 40°38' W 074°12'0 0.0
2018-Apr-14 14:25N 40°38' W 074°12'2 4.5
2018-Apr-14 13:59N 40°36' W 074°12'4 7.0
2018-Apr-14 13:28N 40°33' W 074°15'0 0.8
2018-Apr-14 13:00N 40°33' W 074°15'0 0.0
2018-Apr-14 12:27N 40°33' W 074°15'0 0.0
2018-Apr-14 11:53N 40°33' W 074°15'0 0.0
2018-Apr-14 11:30N 40°33' W 074°15'0 0.0
2018-Apr-14 11:00N 40°33' W 074°15'0 0.0
2018-Apr-14 10:30N 40°33' W 074°15'0 0.0
2018-Apr-14 09:59N 40°33' W 074°15'0 0.0
2018-Apr-14 09:30N 40°33' W 074°15'0 0.0
2018-Apr-14 08:59N 40°33' W 074°15'0 0.0
2018-Apr-14 08:30N 40°33' W 074°15'0 0.5
2018-Apr-14 07:42N 40°33' W 074°15'4 6.7
2018-Apr-14 07:10N 40°36' W 074°12'1 8.3
2018-Apr-14 07:00N 40°37' W 074°12'4 7.1
2018-Apr-14 06:30N 40°39' W 074°08'1 2.4
2018-Apr-14 06:00N 40°39' W 074°07'0 0.0
2018-Apr-14 05:30N 40°39' W 074°07'0 0.0
2018-Apr-14 04:56N 40°39' W 074°07'0 0.0
2018-Apr-14 04:24N 40°39' W 074°07'0 0.0
2018-Apr-14 03:59N 40°39' W 074°07'0 0.0
2018-Apr-14 03:18N 40°39' W 074°07'1 5.1
2018-Apr-14 03:00N 40°39' W 074°08'3 6.4
2018-Apr-14 02:30N 40°37' W 074°12'4 7.3
2018-Apr-14 02:00N 40°34' W 074°13'2 0.3
2018-Apr-13 19:53N 40°32' W 074°15'3 7.8
2018-Apr-13 19:30N 40°34' W 074°13'4 8.2
2018-Apr-13 18:59N 40°38' W 074°12'3 6.4
2018-Apr-13 18:30N 40°39' W 074°07'1 1.6
2018-Apr-13 18:00N 40°39' W 074°06'1 2.3
2018-Apr-13 17:30N 40°39' W 074°05'2 4.6
2018-Apr-13 17:00N 40°40' W 074°02'0 0.2
2018-Apr-13 16:30N 40°40' W 074°02'0 0.1
2018-Apr-13 16:00N 40°40' W 074°02'0 0.0
2018-Apr-13 15:30N 40°40' W 074°02'0 0.0
2018-Apr-13 15:00N 40°40' W 074°02'0 0.0
2018-Apr-13 14:30N 40°40' W 074°02'0 0.1
2018-Apr-13 14:00N 40°40' W 074°02'3 6.6
2018-Apr-13 13:31N 40°39' W 074°06'4 7.2
2018-Apr-13 13:00N 40°39' W 074°11'1 2.6
2018-Apr-13 12:30N 40°38' W 074°12'0 0.0
2018-Apr-13 12:00N 40°38' W 074°12'0 0.0
2018-Apr-13 11:28N 40°38' W 074°12'0 0.0
2018-Apr-13 11:00N 40°38' W 074°12'0 0.0
2018-Apr-13 10:30N 40°38' W 074°12'0 0.0
2018-Apr-13 10:00N 40°38' W 074°12'0 0.0
2018-Apr-13 09:28N 40°38' W 074°12'0 0.0
2018-Apr-13 09:00N 40°38' W 074°12'0 0.0
2018-Apr-13 08:30N 40°38' W 074°12'0 0.0
2018-Apr-13 07:57N 40°38' W 074°12'0 0.0
2018-Apr-13 07:30N 40°38' W 074°12'0 0.0
2018-Apr-13 07:00N 40°38' W 074°12'0 0.0
2018-Apr-13 06:30N 40°38' W 074°12'0 0.0
2018-Apr-13 06:00N 40°38' W 074°12'0 0.0
2018-Apr-13 05:30N 40°38' W 074°12'0 0.0
2018-Apr-13 05:00N 40°38' W 074°12'0 0.0
2018-Apr-13 04:29N 40°38' W 074°12'0 0.0
2018-Apr-13 04:00N 40°38' W 074°12'0 0.0
2018-Apr-13 03:30N 40°38' W 074°12'0 0.0
2018-Apr-13 03:00N 40°38' W 074°12'0 0.0
2018-Apr-13 02:30N 40°38' W 074°12'0 0.0
2018-Apr-13 02:00N 40°38' W 074°12'0 0.0
2018-Apr-13 01:30N 40°38' W 074°12'0 0.8
2018-Apr-13 01:00N 40°38' W 074°12'3 5.3
2018-Apr-13 00:30N 40°39' W 074°09'4 7.2
2018-Apr-13 00:00N 40°40' W 074°04'2 3.7
2018-Apr-12 23:30N 40°40' W 074°02'0 0.0
2018-Apr-12 23:00N 40°40' W 074°02'0 0.0
2018-Apr-12 22:30N 40°40' W 074°02'0 0.1
2018-Apr-12 22:00N 40°40' W 074°02'0 0.1
2018-Apr-12 21:30N 40°40' W 074°02'0 0.1
2018-Apr-12 21:00N 40°40' W 074°02'0 0.1
2018-Apr-12 20:30N 40°40' W 074°02'0 0.1
2018-Apr-12 20:00N 40°40' W 074°02'1 1.2
2018-Apr-12 19:30N 40°41' W 074°02'3 6.6
2018-Apr-12 19:01N 40°43' W 073°58'4 7.7
2018-Apr-12 18:29N 40°47' W 073°56'4 7.9
2018-Apr-12 18:00N 40°48' W 073°52'4 7.1
2018-Apr-12 17:28N 40°49' W 073°47'4 0.2
2018-Apr-11 19:57N 40°53' W 073°44'4 7.6
2018-Apr-11 19:28N 40°50' W 073°47'3 5.8
2018-Apr-11 19:00N 40°48' W 073°50'4 7.2
2018-Apr-11 18:30N 40°48' W 073°55'4 7.2
2018-Apr-11 18:00N 40°45' W 073°58'3 5.9
2018-Apr-11 17:31N 40°42' W 073°59'3 5.6
2018-Apr-11 17:01N 40°40' W 074°02'3 5.7
2018-Apr-11 16:30N 40°39' W 074°05'2 3.1
2018-Apr-11 16:00N 40°39' W 074°07'0 0.0
2018-Apr-11 15:28N 40°39' W 074°07'0 0.0
2018-Apr-11 15:00N 40°39' W 074°07'0 0.0
2018-Apr-11 14:30N 40°39' W 074°07'0 0.0
2018-Apr-11 14:00N 40°39' W 074°07'0 0.0
2018-Apr-11 13:30N 40°39' W 074°07'0 0.0
2018-Apr-11 13:00N 40°39' W 074°07'0 0.0
2018-Apr-11 12:29N 40°39' W 074°07'0 0.0
2018-Apr-11 12:00N 40°39' W 074°07'0 0.0
2018-Apr-11 11:30N 40°39' W 074°07'0 0.0
2018-Apr-11 11:00N 40°39' W 074°07'0 0.0
2018-Apr-11 10:30N 40°39' W 074°07'0 0.0
2018-Apr-11 10:00N 40°39' W 074°07'0 0.0
2018-Apr-11 09:30N 40°39' W 074°07'0 0.0
2018-Apr-11 09:00N 40°39' W 074°07'0 0.0
2018-Apr-11 08:30N 40°39' W 074°07'0 0.0
2018-Apr-11 08:00N 40°39' W 074°07'0 0.0
2018-Apr-11 07:30N 40°39' W 074°07'0 0.0
2018-Apr-11 07:00N 40°39' W 074°07'0 0.0
2018-Apr-11 06:28N 40°39' W 074°07'0 0.0
2018-Apr-11 06:00N 40°39' W 074°07'0 0.0
2018-Apr-11 05:13N 40°39' W 074°07'0 0.0
2018-Apr-11 05:00N 40°39' W 074°07'0 0.0
2018-Apr-11 04:29N 40°39' W 074°07'0 0.0
2018-Apr-11 04:00N 40°39' W 074°07'0 0.0
2018-Apr-11 03:30N 40°39' W 074°07'0 0.0
2018-Apr-11 03:00N 40°39' W 074°07'0 0.0
2018-Apr-11 02:30N 40°39' W 074°07'0 0.0
2018-Apr-11 02:00N 40°39' W 074°07'0 0.0
2018-Apr-11 01:30N 40°39' W 074°07'0 0.0
2018-Apr-11 01:00N 40°39' W 074°07'0 0.0
2018-Apr-11 00:30N 40°39' W 074°07'0 0.0
2018-Apr-11 00:00N 40°39' W 074°07'0 0.0
2018-Apr-10 23:30N 40°39' W 074°07'0 0.0
2018-Apr-10 23:00N 40°39' W 074°07'0 0.0
2018-Apr-10 22:30N 40°39' W 074°07'0 0.0
2018-Apr-10 22:01N 40°39' W 074°07'0 0.0
2018-Apr-10 21:30N 40°39' W 074°07'0 0.0
2018-Apr-10 21:01N 40°39' W 074°07'0 0.0
2018-Apr-10 20:31N 40°39' W 074°07'0 0.0
2018-Apr-10 20:00N 40°39' W 074°07'0 0.0
2018-Apr-10 19:30N 40°39' W 074°07'0 0.0
2018-Apr-10 19:00N 40°39' W 074°07'0 0.0
2018-Apr-10 18:30N 40°39' W 074°07'0 0.0
2018-Apr-10 17:59N 40°39' W 074°07'0 0.0
2018-Apr-10 17:30N 40°39' W 074°07'0 0.0
2018-Apr-10 17:01N 40°39' W 074°07'0 0.0
2018-Apr-10 16:30N 40°39' W 074°07'0 0.0
2018-Apr-10 15:59N 40°39' W 074°07'0 0.0
2018-Apr-10 15:28N 40°39' W 074°07'0 0.0
2018-Apr-10 15:00N 40°39' W 074°07'0 0.0
2018-Apr-10 14:30N 40°39' W 074°07'0 0.0
2018-Apr-10 14:00N 40°39' W 074°07'0 0.0
2018-Apr-10 13:30N 40°39' W 074°07'0 0.0
2018-Apr-10 13:00N 40°39' W 074°07'0 0.0
2018-Apr-10 12:31N 40°39' W 074°07'0 0.0
2018-Apr-10 11:58N 40°39' W 074°07'0 0.0
2018-Apr-10 11:31N 40°39' W 074°07'0 0.0
2018-Apr-10 11:00N 40°39' W 074°07'0 0.0
2018-Apr-10 10:29N 40°39' W 074°07'0 0.0
2018-Apr-10 09:57N 40°39' W 074°07'0 0.0
2018-Apr-10 09:30N 40°39' W 074°07'0 0.0
2018-Apr-10 09:00N 40°39' W 074°07'0 0.2
2018-Apr-10 08:29N 40°39' W 074°07'2 3.1
2018-Apr-10 08:01N 40°39' W 074°09'0 0.3
2018-Apr-10 07:30N 40°39' W 074°09'0 0.2
2018-Apr-10 07:00N 40°39' W 074°09'0 0.2
2018-Apr-10 06:31N 40°39' W 074°09'1 1.6
2018-Apr-10 06:00N 40°39' W 074°10'2 4.1
2018-Apr-10 05:27N 40°38' W 074°12'0 0.2
2018-Apr-10 04:58N 40°38' W 074°12'0 0.0
2018-Apr-10 04:30N 40°38' W 074°12'0 0.0
2018-Apr-10 04:00N 40°38' W 074°12'0 0.0
2018-Apr-10 03:28N 40°38' W 074°12'0 0.0
2018-Apr-10 03:00N 40°38' W 074°12'0 0.0
2018-Apr-10 02:30N 40°38' W 074°12'0 0.0
2018-Apr-10 02:00N 40°38' W 074°12'0 0.0
2018-Apr-10 01:30N 40°38' W 074°12'0 0.3
2018-Apr-10 00:59N 40°38' W 074°12'0 0.0
2018-Apr-10 00:24N 40°38' W 074°12'0 0.0
2018-Apr-10 00:00N 40°38' W 074°12'0 0.0
2018-Apr-09 23:29N 40°38' W 074°12'0 0.0
2018-Apr-09 22:59N 40°38' W 074°12'0 0.0
2018-Apr-09 22:24N 40°38' W 074°12'0 0.0
2018-Apr-09 21:59N 40°38' W 074°12'0 0.0
2018-Apr-09 21:31N 40°38' W 074°12'0 0.0
2018-Apr-09 20:59N 40°38' W 074°12'0 0.0
2018-Apr-09 20:30N 40°38' W 074°12'0 0.0
2018-Apr-09 20:01N 40°38' W 074°12'0 0.0
2018-Apr-09 19:29N 40°38' W 074°12'3 5.1
2018-Apr-09 18:57N 40°35' W 074°12'1 1.3
2018-Apr-09 18:03N 40°34' W 074°13'1 9.4
2018-Apr-09 17:56N 40°35' W 074°13'3 5.8
2018-Apr-09 17:28N 40°38' W 074°12'0 0.3
2018-Apr-09 17:00N 40°38' W 074°12'3 5.4
2018-Apr-09 16:30N 40°39' W 074°09'3 5.8
2018-Apr-09 16:00N 40°39' W 074°05'0 0.0
2018-Apr-09 15:30N 40°39' W 074°05'0 0.0
2018-Apr-09 15:00N 40°39' W 074°05'0 0.0
2018-Apr-09 14:31N 40°39' W 074°05'  

Dump ship's entire track history